Niledutch Spirit — 4RBK — position and weather

sailwx.info

Track history (hours):
 
Tides and Currents Weather Stations Pressure Air Temp Water Temp Dewpoint Dewpoint Depression Visibility Wind Speed Wind Dir Waves Ship Positions

Niledutch Spirit

Last reported at 2018-Feb-21 04:43 UTC. Time now 2018-Feb-24 14:03 UTC.
Position N 37°40' W 009°38'.

Length 140 m; draft 8.6 m.

Type: Ship (hazmat cat A). MMSI: 417222324.

Date/timePositionNaut miles runAvg speedWind from/ knotsBaromVisibWave heightAir tempDewpointWater temp
2018-Feb-21 04:43N 37°40' W 009°38'513.9
2018-Feb-21 04:24N 37°44' W 009°36'513.6
2018-Feb-21 04:00N 37°50' W 009°35'713.8
2018-Feb-21 03:30N 37°56' W 009°33'714.2
2018-Feb-21 03:00N 38°03' W 009°31'714.1
2018-Feb-21 02:30N 38°10' W 009°30'713.8
2018-Feb-21 02:00N 38°17' W 009°28'713.7
2018-Feb-21 01:31N 38°24' W 009°27'714.1
2018-Feb-21 01:00N 38°31' W 009°25'713.9
2018-Feb-21 00:30N 38°37' W 009°22'713.6
2018-Feb-21 00:00N 38°41' W 009°15'713.2
2018-Feb-20 23:30N 38°43' W 009°07'1 1.7
2018-Feb-20 23:01N 38°43' W 009°06'0 0.0
2018-Feb-20 22:28N 38°43' W 009°06'0 0.0
2018-Feb-20 21:55N 38°43' W 009°06'0 0.0
2018-Feb-20 21:28N 38°43' W 009°06'0 0.0
2018-Feb-20 21:01N 38°43' W 009°06'0 0.0
2018-Feb-20 20:31N 38°44' W 009°06'0 0.0
2018-Feb-20 19:58N 38°43' W 009°06'0 0.0
2018-Feb-20 19:28N 38°43' W 009°06'0 0.0
2018-Feb-20 19:01N 38°43' W 009°06'0 0.0
2018-Feb-20 18:31N 38°43' W 009°06'0 0.0
2018-Feb-20 18:01N 38°43' W 009°06'0 0.0
2018-Feb-20 17:31N 38°43' W 009°06'0 0.0
2018-Feb-20 17:01N 38°43' W 009°06'0 0.0
2018-Feb-20 16:31N 38°43' W 009°06'0 0.0
2018-Feb-20 16:00N 38°43' W 009°06'1 1.1
2018-Feb-20 15:30N 38°43' W 009°07'510.4
2018-Feb-20 15:00N 38°41' W 009°13'2 3.9
2018-Feb-20 14:29N 38°41' W 009°15'3 6.8
2018-Feb-20 14:00N 38°40' W 009°19'3 6.5
2018-Feb-20 13:30N 38°37' W 009°22'3 5.7
2018-Feb-20 13:00N 38°37' W 009°26'4 7.6
2018-Feb-20 12:30N 38°36' W 009°31'612.2
2018-Feb-20 12:00N 38°36' W 009°38'613.0
2018-Feb-20 11:30N 38°35' W 009°47'612.5
2018-Feb-20 11:00N 38°35' W 009°55'612.4
2018-Feb-20 10:29N 38°34' W 010°03'712.7
2018-Feb-20 09:57N 38°41' W 010°05'613.0
2018-Feb-20 09:30N 38°47' W 010°05'613.3
2018-Feb-20 09:00N 38°53' W 010°05'714.4
2018-Feb-20 08:30N 39°01' W 010°04'714.4
2018-Feb-20 08:00N 39°08' W 010°03'714.4
2018-Feb-20 07:30N 39°15' W 010°02'714.1
2018-Feb-20 07:00N 39°22' W 009°59'1414.3
2018-Feb-20 06:00N 39°35' W 009°52'10014.2
2018-Feb-19 22:59N 41°04' W 008°55'713.8
2018-Feb-19 22:30N 41°08' W 008°47'5 9.8
2018-Feb-19 22:00N 41°11' W 008°42'1 2.3
2018-Feb-19 21:30N 41°12' W 008°41'0 0.0
2018-Feb-19 20:59N 41°12' W 008°41'0 0.0
2018-Feb-19 20:29N 41°12' W 008°41'0 0.0
2018-Feb-19 19:59N 41°12' W 008°41'0 0.0
2018-Feb-19 19:29N 41°12' W 008°41'0 0.0
2018-Feb-19 18:56N 41°12' W 008°41'0 0.0
2018-Feb-19 18:29N 41°12' W 008°41'0 0.0
2018-Feb-19 17:59N 41°12' W 008°41'0 0.0
2018-Feb-19 17:29N 41°12' W 008°41'0 0.0
2018-Feb-19 16:59N 41°12' W 008°41'0 0.0
2018-Feb-19 16:29N 41°12' W 008°41'0 0.0
2018-Feb-19 15:59N 41°12' W 008°41'0 0.0
2018-Feb-19 15:26N 41°12' W 008°41'0 0.0
2018-Feb-19 14:59N 41°12' W 008°41'0 0.0
2018-Feb-19 14:20N 41°12' W 008°41'0 0.0
2018-Feb-19 13:59N 41°12' W 008°41'0 0.0
2018-Feb-19 13:29N 41°12' W 008°41'0 0.0
2018-Feb-19 12:59N 41°12' W 008°41'0 0.0
2018-Feb-19 12:29N 41°12' W 008°41'0 0.0
2018-Feb-19 11:59N 41°12' W 008°41'0 0.0
2018-Feb-19 11:29N 41°12' W 008°41'0 0.0
2018-Feb-19 10:59N 41°12' W 008°41'0 0.0
2018-Feb-19 10:29N 41°12' W 008°41'0 0.0
2018-Feb-19 09:59N 41°12' W 008°41'0 0.0
2018-Feb-19 09:29N 41°12' W 008°41'0 0.0
2018-Feb-19 08:59N 41°12' W 008°41'0 0.0
2018-Feb-19 08:23N 41°12' W 008°41'0 0.0
2018-Feb-19 07:59N 41°12' W 008°41'0 0.0
2018-Feb-19 07:29N 41°12' W 008°41'0 0.0
2018-Feb-19 06:59N 41°12' W 008°41'0 0.0
2018-Feb-19 06:26N 41°12' W 008°41'0 0.0
2018-Feb-19 05:59N 41°12' W 008°41'0 0.0
2018-Feb-19 05:29N 41°12' W 008°41'0 0.0
2018-Feb-19 04:59N 41°12' W 008°41'0 0.0
2018-Feb-19 04:29N 41°12' W 008°41'0 0.0
2018-Feb-19 03:59N 41°12' W 008°41'0 0.0
2018-Feb-19 03:29N 41°12' W 008°41'0 0.0
2018-Feb-19 02:59N 41°12' W 008°41'0 0.0
2018-Feb-19 02:26N 41°12' W 008°41'0 0.0
2018-Feb-19 01:59N 41°12' W 008°41'0 0.0
2018-Feb-19 01:29N 41°12' W 008°41'0 0.0
2018-Feb-19 00:59N 41°12' W 008°41'0 0.0
2018-Feb-19 00:29N 41°12' W 008°41'0 0.0
2018-Feb-18 23:59N 41°12' W 008°41'0 0.0
2018-Feb-18 23:29N 41°12' W 008°41'0 0.0
2018-Feb-18 22:59N 41°12' W 008°41'0 0.0
2018-Feb-18 22:29N 41°12' W 008°41'0 0.0
2018-Feb-18 21:59N 41°12' W 008°41'0 0.0
2018-Feb-18 21:29N 41°12' W 008°41'0 0.0
2018-Feb-18 20:59N 41°12' W 008°41'0 0.0
2018-Feb-18 20:29N 41°12' W 008°41'0 0.0
2018-Feb-18 19:59N 41°12' W 008°41'0 0.0
2018-Feb-18 19:30N 41°12' W 008°41'2 3.3
2018-Feb-18 19:00N 41°10' W 008°42'2 3.9
2018-Feb-18 18:30N 41°09' W 008°44'2 4.3
2018-Feb-18 18:00N 41°07' W 008°46'0 0.1
2018-Feb-18 17:30N 41°07' W 008°46'0 0.0
2018-Feb-18 16:54N 41°07' W 008°46'0 0.0
2018-Feb-18 16:30N 41°07' W 008°46'0 0.0
2018-Feb-18 16:00N 41°07' W 008°46'0 0.0
2018-Feb-18 15:30N 41°07' W 008°46'0 0.0
2018-Feb-18 14:54N 41°07' W 008°46'0 0.0
2018-Feb-18 14:30N 41°07' W 008°46'0 0.0
2018-Feb-18 14:00N 41°07' W 008°46'0 0.0
2018-Feb-18 13:30N 41°07' W 008°46'0 0.1
2018-Feb-18 13:00N 41°07' W 008°46'0 0.1
2018-Feb-18 12:30N 41°07' W 008°46'0 0.0
2018-Feb-18 12:00N 41°07' W 008°46'0 0.0
2018-Feb-18 11:30N 41°07' W 008°46'0 0.0
2018-Feb-18 11:00N 41°07' W 008°46'0 0.0
2018-Feb-18 10:30N 41°07' W 008°46'0 0.0
2018-Feb-18 10:00N 41°07' W 008°46'0 0.1
2018-Feb-18 09:30N 41°07' W 008°46'1 2.1
2018-Feb-18 09:00N 41°08' W 008°47'4 8.5
2018-Feb-18 08:30N 41°12' W 008°49'46011.0
2018-Feb-16 14:45N 48°35' W 005°57'5 9.8
2018-Feb-16 14:13N 48°40' W 005°54'117 9.4
2018-Feb-16 01:47N 49°48' W 003°28'3 9.8
2018-Feb-16 01:27N 49°49' W 003°23'4 9.8
2018-Feb-16 01:00N 49°51' W 003°17'5 9.3
2018-Feb-16 00:30N 49°54' W 003°11'5 9.6
2018-Feb-15 23:59N 49°56' W 003°05'4 9.1
2018-Feb-15 23:30N 49°58' W 002°59'4 8.5
2018-Feb-15 23:00N 49°59' W 002°52'5 8.0
2018-Feb-15 22:24N 49°60' W 002°45'3 7.4
2018-Feb-15 22:00N 50°01' W 002°40'29 5.9
2018-Feb-15 17:06N 50°09' W 001°58'1 9.6
2018-Feb-15 16:59N 50°09' W 001°56'610.9
2018-Feb-15 16:24N 50°06' W 001°47'3 7.2
2018-Feb-15 16:01N 50°04' W 001°43'3 5.4
2018-Feb-15 15:30N 50°03' W 001°40'3 5.9
2018-Feb-15 15:00N 50°01' W 001°36'3 6.3
2018-Feb-15 14:30N 49°60' W 001°32'3 6.1
2018-Feb-15 14:00N 49°57' W 001°29'3 6.0
2018-Feb-15 13:30N 49°55' W 001°26'3 5.7
2018-Feb-15 13:00N 49°53' W 001°23'3 5.9
2018-Feb-15 12:30N 49°51' W 001°19'3 6.9
2018-Feb-15 12:00N 49°48' W 001°16'4 7.5
2018-Feb-15 11:30N 49°45' W 001°12'4 7.2
2018-Feb-15 11:00N 49°43' W 001°09'3 6.6
2018-Feb-15 10:30N 49°40' W 001°06'3 6.1
2018-Feb-15 10:00N 49°37' W 001°03'1 1.4
2018-Feb-15 09:25N 49°37' W 001°02'0 0.0
2018-Feb-15 08:31N 49°37' W 001°02'0 0.1
2018-Feb-15 08:28N 49°37' W 001°02'0 0.0
2018-Feb-15 07:55N 49°37' W 001°02'0 0.0
2018-Feb-15 07:25N 49°37' W 001°02'0 0.1
2018-Feb-15 05:31N 49°37' W 001°02'0 0.2
2018-Feb-15 05:19N 49°37' W 001°02'0 0.2
2018-Feb-15 04:55N 49°37' W 001°02'0 0.0
2018-Feb-14 12:49N 49°37' W 001°02'0 0.0
2018-Feb-14 12:19N 49°37' W 001°02'0 0.0
2018-Feb-14 08:43N 49°37' W 001°02'0 0.3
2018-Feb-14 08:25N 49°37' W 001°02'0 0.1
2018-Feb-14 07:58N 49°37' W 001°02'0 0.1
2018-Feb-14 07:28N 49°37' W 001°02'0 0.0
2018-Feb-14 06:58N 49°37' W 001°02'0 0.0
2018-Feb-14 06:22N 49°37' W 001°02'0 0.1
2018-Feb-14 05:55N 49°37' W 001°02'0 0.0
2018-Feb-14 05:28N 49°37' W 001°02'0 0.1
2018-Feb-14 04:55N 49°37' W 001°02'0 0.1
2018-Feb-14 04:25N 49°37' W 001°02'0 0.0
2018-Feb-14 03:58N 49°37' W 001°02'0 0.2
2018-Feb-14 03:07N 49°37' W 001°02'0 0.0
2018-Feb-14 00:13N 49°37' W 001°02'0 0.0
2018-Feb-13 16:49N 49°37' W 001°02'0 0.0
2018-Feb-13 16:25N 49°37' W 001°02'0 0.0
2018-Feb-13 15:55N 49°37' W 001°02'0 0.1
2018-Feb-13 15:25N 49°37' W 001°02'0 0.0
2018-Feb-13 14:55N 49°37' W 001°02'0 0.0
2018-Feb-13 06:10N 49°37' W 001°02'0 0.0
2018-Feb-13 04:13N 49°37' W 001°02'0 0.0
2018-Feb-12 20:07N 49°37' W 001°02'0 0.3
2018-Feb-12 19:58N 49°37' W 001°02'0 0.2
2018-Feb-12 19:28N 49°37' W 001°02'0 0.1
2018-Feb-12 18:55N 49°37' W 001°02'0 0.0
2018-Feb-12 18:25N 49°37' W 001°02'0 0.0
2018-Feb-12 17:19N 49°37' W 001°02'0 0.1
2018-Feb-12 16:52N 49°37' W 001°02'0 0.2
2018-Feb-12 16:28N 49°37' W 001°02'0 0.0
2018-Feb-12 08:43N 49°37' W 001°02'0 0.0
2018-Feb-12 08:25N 49°37' W 001°02'0 0.0
2018-Feb-12 00:52N 49°37' W 001°02'0 0.0
2018-Feb-12 00:19N 49°37' W 001°02'0 0.1
2018-Feb-11 23:58N 49°37' W 001°02'0 0.0
2018-Feb-11 23:25N 49°37' W 001°02'0 0.0
2018-Feb-11 22:58N 49°37' W 001°02'0 0.0
2018-Feb-11 16:34N 49°37' W 001°02'0 0.0
2018-Feb-11 15:37N 49°37' W 001°02'0 0.1
2018-Feb-11 15:25N 49°37' W 001°02'0 0.0
2018-Feb-11 14:58N 49°37' W 001°02'0 0.1
2018-Feb-11 14:19N 49°37' W 001°02'0 0.1
2018-Feb-11 13:58N 49°37' W 001°02'0 0.1
2018-Feb-11 13:19N 49°37' W 001°02'0 0.0
2018-Feb-11 12:55N 49°37' W 001°02'0 0.0
2018-Feb-11 09:10N 49°37' W 001°02'0 0.2
2018-Feb-11 08:58N 49°37' W 001°02'0 0.1
2018-Feb-11 08:19N 49°37' W 001°02'0 0.0
2018-Feb-11 07:58N 49°37' W 001°02'  
Track history (hours):
 
Tides and Currents Weather Stations Pressure Air Temp Water Temp Dewpoint Dewpoint Depression Visibility Wind Speed Wind Dir Waves Ship Positions

Niledutch Spirit

Last reported at 2018-Feb-21 04:43 UTC. Time now 2018-Feb-24 14:03 UTC.
Position N 37°40' W 009°38'.

Length 140 m; draft 8.6 m.

Type: Ship (hazmat cat A). MMSI: 417222324.

Date/timePositionNaut miles runAvg speedWind from/ knotsBaromVisibWave heightAir tempDewpointWater temp
2018-Feb-21 04:43N 37°40' W 009°38'513.9
2018-Feb-21 04:24N 37°44' W 009°36'513.6
2018-Feb-21 04:00N 37°50' W 009°35'713.8
2018-Feb-21 03:30N 37°56' W 009°33'714.2
2018-Feb-21 03:00N 38°03' W 009°31'714.1
2018-Feb-21 02:30N 38°10' W 009°30'713.8
2018-Feb-21 02:00N 38°17' W 009°28'713.7
2018-Feb-21 01:31N 38°24' W 009°27'714.1
2018-Feb-21 01:00N 38°31' W 009°25'713.9
2018-Feb-21 00:30N 38°37' W 009°22'713.6
2018-Feb-21 00:00N 38°41' W 009°15'713.2
2018-Feb-20 23:30N 38°43' W 009°07'1 1.7
2018-Feb-20 23:01N 38°43' W 009°06'0 0.0
2018-Feb-20 22:28N 38°43' W 009°06'0 0.0
2018-Feb-20 21:55N 38°43' W 009°06'0 0.0
2018-Feb-20 21:28N 38°43' W 009°06'0 0.0
2018-Feb-20 21:01N 38°43' W 009°06'0 0.0
2018-Feb-20 20:31N 38°44' W 009°06'0 0.0
2018-Feb-20 19:58N 38°43' W 009°06'0 0.0
2018-Feb-20 19:28N 38°43' W 009°06'0 0.0
2018-Feb-20 19:01N 38°43' W 009°06'0 0.0
2018-Feb-20 18:31N 38°43' W 009°06'0 0.0
2018-Feb-20 18:01N 38°43' W 009°06'0 0.0
2018-Feb-20 17:31N 38°43' W 009°06'0 0.0
2018-Feb-20 17:01N 38°43' W 009°06'0 0.0
2018-Feb-20 16:31N 38°43' W 009°06'0 0.0
2018-Feb-20 16:00N 38°43' W 009°06'1 1.1
2018-Feb-20 15:30N 38°43' W 009°07'510.4
2018-Feb-20 15:00N 38°41' W 009°13'2 3.9
2018-Feb-20 14:29N 38°41' W 009°15'3 6.8
2018-Feb-20 14:00N 38°40' W 009°19'3 6.5
2018-Feb-20 13:30N 38°37' W 009°22'3 5.7
2018-Feb-20 13:00N 38°37' W 009°26'4 7.6
2018-Feb-20 12:30N 38°36' W 009°31'612.2
2018-Feb-20 12:00N 38°36' W 009°38'613.0
2018-Feb-20 11:30N 38°35' W 009°47'612.5
2018-Feb-20 11:00N 38°35' W 009°55'612.4
2018-Feb-20 10:29N 38°34' W 010°03'712.7
2018-Feb-20 09:57N 38°41' W 010°05'613.0
2018-Feb-20 09:30N 38°47' W 010°05'613.3
2018-Feb-20 09:00N 38°53' W 010°05'714.4
2018-Feb-20 08:30N 39°01' W 010°04'714.4
2018-Feb-20 08:00N 39°08' W 010°03'714.4
2018-Feb-20 07:30N 39°15' W 010°02'714.1
2018-Feb-20 07:00N 39°22' W 009°59'1414.3
2018-Feb-20 06:00N 39°35' W 009°52'10014.2
2018-Feb-19 22:59N 41°04' W 008°55'713.8
2018-Feb-19 22:30N 41°08' W 008°47'5 9.8
2018-Feb-19 22:00N 41°11' W 008°42'1 2.3
2018-Feb-19 21:30N 41°12' W 008°41'0 0.0
2018-Feb-19 20:59N 41°12' W 008°41'0 0.0
2018-Feb-19 20:29N 41°12' W 008°41'0 0.0
2018-Feb-19 19:59N 41°12' W 008°41'0 0.0
2018-Feb-19 19:29N 41°12' W 008°41'0 0.0
2018-Feb-19 18:56N 41°12' W 008°41'0 0.0
2018-Feb-19 18:29N 41°12' W 008°41'0 0.0
2018-Feb-19 17:59N 41°12' W 008°41'0 0.0
2018-Feb-19 17:29N 41°12' W 008°41'0 0.0
2018-Feb-19 16:59N 41°12' W 008°41'0 0.0
2018-Feb-19 16:29N 41°12' W 008°41'0 0.0
2018-Feb-19 15:59N 41°12' W 008°41'0 0.0
2018-Feb-19 15:26N 41°12' W 008°41'0 0.0
2018-Feb-19 14:59N 41°12' W 008°41'0 0.0
2018-Feb-19 14:20N 41°12' W 008°41'0 0.0
2018-Feb-19 13:59N 41°12' W 008°41'0 0.0
2018-Feb-19 13:29N 41°12' W 008°41'0 0.0
2018-Feb-19 12:59N 41°12' W 008°41'0 0.0
2018-Feb-19 12:29N 41°12' W 008°41'0 0.0
2018-Feb-19 11:59N 41°12' W 008°41'0 0.0
2018-Feb-19 11:29N 41°12' W 008°41'0 0.0
2018-Feb-19 10:59N 41°12' W 008°41'0 0.0
2018-Feb-19 10:29N 41°12' W 008°41'0 0.0
2018-Feb-19 09:59N 41°12' W 008°41'0 0.0
2018-Feb-19 09:29N 41°12' W 008°41'0 0.0
2018-Feb-19 08:59N 41°12' W 008°41'0 0.0
2018-Feb-19 08:23N 41°12' W 008°41'0 0.0
2018-Feb-19 07:59N 41°12' W 008°41'0 0.0
2018-Feb-19 07:29N 41°12' W 008°41'0 0.0
2018-Feb-19 06:59N 41°12' W 008°41'0 0.0
2018-Feb-19 06:26N 41°12' W 008°41'0 0.0
2018-Feb-19 05:59N 41°12' W 008°41'0 0.0
2018-Feb-19 05:29N 41°12' W 008°41'0 0.0
2018-Feb-19 04:59N 41°12' W 008°41'0 0.0
2018-Feb-19 04:29N 41°12' W 008°41'0 0.0
2018-Feb-19 03:59N 41°12' W 008°41'0 0.0
2018-Feb-19 03:29N 41°12' W 008°41'0 0.0
2018-Feb-19 02:59N 41°12' W 008°41'0 0.0
2018-Feb-19 02:26N 41°12' W 008°41'0 0.0
2018-Feb-19 01:59N 41°12' W 008°41'0 0.0
2018-Feb-19 01:29N 41°12' W 008°41'0 0.0
2018-Feb-19 00:59N 41°12' W 008°41'0 0.0
2018-Feb-19 00:29N 41°12' W 008°41'0 0.0
2018-Feb-18 23:59N 41°12' W 008°41'0 0.0
2018-Feb-18 23:29N 41°12' W 008°41'0 0.0
2018-Feb-18 22:59N 41°12' W 008°41'0 0.0
2018-Feb-18 22:29N 41°12' W 008°41'0 0.0
2018-Feb-18 21:59N 41°12' W 008°41'0 0.0
2018-Feb-18 21:29N 41°12' W 008°41'0 0.0
2018-Feb-18 20:59N 41°12' W 008°41'0 0.0
2018-Feb-18 20:29N 41°12' W 008°41'0 0.0
2018-Feb-18 19:59N 41°12' W 008°41'0 0.0
2018-Feb-18 19:30N 41°12' W 008°41'2 3.3
2018-Feb-18 19:00N 41°10' W 008°42'2 3.9
2018-Feb-18 18:30N 41°09' W 008°44'2 4.3
2018-Feb-18 18:00N 41°07' W 008°46'0 0.1
2018-Feb-18 17:30N 41°07' W 008°46'0 0.0
2018-Feb-18 16:54N 41°07' W 008°46'0 0.0
2018-Feb-18 16:30N 41°07' W 008°46'0 0.0
2018-Feb-18 16:00N 41°07' W 008°46'0 0.0
2018-Feb-18 15:30N 41°07' W 008°46'0 0.0
2018-Feb-18 14:54N 41°07' W 008°46'0 0.0
2018-Feb-18 14:30N 41°07' W 008°46'0 0.0
2018-Feb-18 14:00N 41°07' W 008°46'0 0.0
2018-Feb-18 13:30N 41°07' W 008°46'0 0.1
2018-Feb-18 13:00N 41°07' W 008°46'0 0.1
2018-Feb-18 12:30N 41°07' W 008°46'0 0.0
2018-Feb-18 12:00N 41°07' W 008°46'0 0.0
2018-Feb-18 11:30N 41°07' W 008°46'0 0.0
2018-Feb-18 11:00N 41°07' W 008°46'0 0.0
2018-Feb-18 10:30N 41°07' W 008°46'0 0.0
2018-Feb-18 10:00N 41°07' W 008°46'0 0.1
2018-Feb-18 09:30N 41°07' W 008°46'1 2.1
2018-Feb-18 09:00N 41°08' W 008°47'4 8.5
2018-Feb-18 08:30N 41°12' W 008°49'46011.0
2018-Feb-16 14:45N 48°35' W 005°57'5 9.8
2018-Feb-16 14:13N 48°40' W 005°54'117 9.4
2018-Feb-16 01:47N 49°48' W 003°28'3 9.8
2018-Feb-16 01:27N 49°49' W 003°23'4 9.8
2018-Feb-16 01:00N 49°51' W 003°17'5 9.3
2018-Feb-16 00:30N 49°54' W 003°11'5 9.6
2018-Feb-15 23:59N 49°56' W 003°05'4 9.1
2018-Feb-15 23:30N 49°58' W 002°59'4 8.5
2018-Feb-15 23:00N 49°59' W 002°52'5 8.0
2018-Feb-15 22:24N 49°60' W 002°45'3 7.4
2018-Feb-15 22:00N 50°01' W 002°40'29 5.9
2018-Feb-15 17:06N 50°09' W 001°58'1 9.6
2018-Feb-15 16:59N 50°09' W 001°56'610.9
2018-Feb-15 16:24N 50°06' W 001°47'3 7.2
2018-Feb-15 16:01N 50°04' W 001°43'3 5.4
2018-Feb-15 15:30N 50°03' W 001°40'3 5.9
2018-Feb-15 15:00N 50°01' W 001°36'3 6.3
2018-Feb-15 14:30N 49°60' W 001°32'3 6.1
2018-Feb-15 14:00N 49°57' W 001°29'3 6.0
2018-Feb-15 13:30N 49°55' W 001°26'3 5.7
2018-Feb-15 13:00N 49°53' W 001°23'3 5.9
2018-Feb-15 12:30N 49°51' W 001°19'3 6.9
2018-Feb-15 12:00N 49°48' W 001°16'4 7.5
2018-Feb-15 11:30N 49°45' W 001°12'4 7.2
2018-Feb-15 11:00N 49°43' W 001°09'3 6.6
2018-Feb-15 10:30N 49°40' W 001°06'3 6.1
2018-Feb-15 10:00N 49°37' W 001°03'1 1.4
2018-Feb-15 09:25N 49°37' W 001°02'0 0.0
2018-Feb-15 08:31N 49°37' W 001°02'0 0.1
2018-Feb-15 08:28N 49°37' W 001°02'0 0.0
2018-Feb-15 07:55N 49°37' W 001°02'0 0.0
2018-Feb-15 07:25N 49°37' W 001°02'0 0.1
2018-Feb-15 05:31N 49°37' W 001°02'0 0.2
2018-Feb-15 05:19N 49°37' W 001°02'0 0.2
2018-Feb-15 04:55N 49°37' W 001°02'0 0.0
2018-Feb-14 12:49N 49°37' W 001°02'0 0.0
2018-Feb-14 12:19N 49°37' W 001°02'0 0.0
2018-Feb-14 08:43N 49°37' W 001°02'0 0.3
2018-Feb-14 08:25N 49°37' W 001°02'0 0.1
2018-Feb-14 07:58N 49°37' W 001°02'0 0.1
2018-Feb-14 07:28N 49°37' W 001°02'0 0.0
2018-Feb-14 06:58N 49°37' W 001°02'0 0.0
2018-Feb-14 06:22N 49°37' W 001°02'0 0.1
2018-Feb-14 05:55N 49°37' W 001°02'0 0.0
2018-Feb-14 05:28N 49°37' W 001°02'0 0.1
2018-Feb-14 04:55N 49°37' W 001°02'0 0.1
2018-Feb-14 04:25N 49°37' W 001°02'0 0.0
2018-Feb-14 03:58N 49°37' W 001°02'0 0.2
2018-Feb-14 03:07N 49°37' W 001°02'0 0.0
2018-Feb-14 00:13N 49°37' W 001°02'0 0.0
2018-Feb-13 16:49N 49°37' W 001°02'0 0.0
2018-Feb-13 16:25N 49°37' W 001°02'0 0.0
2018-Feb-13 15:55N 49°37' W 001°02'0 0.1
2018-Feb-13 15:25N 49°37' W 001°02'0 0.0
2018-Feb-13 14:55N 49°37' W 001°02'0 0.0
2018-Feb-13 06:10N 49°37' W 001°02'0 0.0
2018-Feb-13 04:13N 49°37' W 001°02'0 0.0
2018-Feb-12 20:07N 49°37' W 001°02'0 0.3
2018-Feb-12 19:58N 49°37' W 001°02'0 0.2
2018-Feb-12 19:28N 49°37' W 001°02'0 0.1
2018-Feb-12 18:55N 49°37' W 001°02'0 0.0
2018-Feb-12 18:25N 49°37' W 001°02'0 0.0
2018-Feb-12 17:19N 49°37' W 001°02'0 0.1
2018-Feb-12 16:52N 49°37' W 001°02'0 0.2
2018-Feb-12 16:28N 49°37' W 001°02'0 0.0
2018-Feb-12 08:43N 49°37' W 001°02'0 0.0
2018-Feb-12 08:25N 49°37' W 001°02'0 0.0
2018-Feb-12 00:52N 49°37' W 001°02'0 0.0
2018-Feb-12 00:19N 49°37' W 001°02'0 0.1
2018-Feb-11 23:58N 49°37' W 001°02'0 0.0
2018-Feb-11 23:25N 49°37' W 001°02'0 0.0
2018-Feb-11 22:58N 49°37' W 001°02'0 0.0
2018-Feb-11 16:34N 49°37' W 001°02'0 0.0
2018-Feb-11 15:37N 49°37' W 001°02'0 0.1
2018-Feb-11 15:25N 49°37' W 001°02'0 0.0
2018-Feb-11 14:58N 49°37' W 001°02'0 0.1
2018-Feb-11 14:19N 49°37' W 001°02'0 0.1
2018-Feb-11 13:58N 49°37' W 001°02'0 0.1
2018-Feb-11 13:19N 49°37' W 001°02'0 0.0
2018-Feb-11 12:55N 49°37' W 001°02'0 0.0
2018-Feb-11 09:10N 49°37' W 001°02'0 0.2
2018-Feb-11 08:58N 49°37' W 001°02'0 0.1
2018-Feb-11 08:19N 49°37' W 001°02'0 0.0
2018-Feb-11 07:58N 49°37' W 001°02'  

Dump ship's entire track history